Longview, TX

11:50 AM CDT on April 18, 2015 (GMT -0500)
Downtown | | Change Station
CLOSE
Current Station
Personal Weather Station
Location: Longview, TX
Elevation: 385 ft
Nearby Weather Stations

Elev 385 ft 32.51 °N, 94.71 °W | Updated 11 seconds ago

Overcast
Overcast
72.3 °F
Feels Like 72.3 °F
N
2.2
Wind Variable Wind from East
Gusts 3.1 mph

Today
High -- | Low -- °F
--% Chance of Precip.
Yesterday
High -- | Low -- °F
Precip. -- in
6:46 AM 7:50 PM
Waning Crescent, 0% visible
Pressure 29.88 in
Visibility 10.0 miles
Clouds Overcast 800 ft
Dew Point 70 °F
Humidity 94%
Rainfall 0.43 in
Snow Depth Not available.
UV 2 out of 12
Pollen 1.00 out of 12
Air Quality Not available.
Flu Activity Local Activity
METAR KGGG 181553Z COR 06005KT 10SM OVC008 22/19 A2989 RMK AO2 SLP118 T02220194

More Conditions Fewer Conditions

Pressure 29.88 in
Visibility 10.0 miles
Clouds Overcast 800 ft
Dew Point 70 °F
Humidity 94%
Rainfall 0.43 in
Snow Depth Not available.
UV 2 out of 12
Pollen 1.00 out of 12
Air Quality Not available.
Flu Activity Local Activity
METAR KGGG 181553Z COR 06005KT 10SM OVC008 22/19 A2989 RMK AO2 SLP118 T02220194

More Conditions Fewer Conditions

Nowcast | as of 11:46 am CDT on April 18, 2015

Through 200 PM CDT...look for scattered showers and a few isolated thunderstorms to continue developing and spreading to the north northwest around 10 mph across the four state region. Rainfall amounts with the stronger showers will range from a tenth to one quarter of an inch.

×

10-Day Weather Forecast

Almanac

Astronomy

Apr. 18, 2015 Rise Set
Actual Time
Civil Twilight
Nautical Twilight
Astronomical Twilight
Moon
Length of Visible Light
Length of Day
Tomorrow will be .
, % of the Moon is Illuminated

Today's Extremes

State Highs State Lows

Community

WunderPhotos

Upload Photos

1,814,457 photos uploaded!

WunderBlogs® & News

Nearby

Air Quality

  Air Quality AQ Index Pollutant
Not available.

Snow Depth

Station Depth Elevation

Earthquake Activity

City Distance Mag. Time & Date
Minimum magnitude displayed is 2.5.

Coastal Water Temperatures

Place Temperature

Stations

Nearby Weather Stations

Station Location Temp. Windchill Dew Point Humidity Wind Precip. Elev Updated Type